Kansas City, Missouri
Current Conditions -  °F | °C
As of 1:54 AM on Friday 31 Oct 2014 (Local Time) from KMKC Reporting Station
Scattered Clouds Scattered Clouds  
Wind Chill: 52°   Ceiling: Unl
Heat Index: 52°   Visibility: 10mi
Dew Point: 40°   Wind: 13mph
Humidity: 63%   Direction: 350°N
Pressure: 30.25"   Gusts: NA
Location:  39.1°N, 94.58°W
Report Text: KMKC 310654Z 35011KT 10SM SCT033 11/04 A3025 RMK AO2 SLP240 T01110044
Loading
Personal Weather Stations






























Interactive Weather Map
Tropical Storm Tracking
New forecast layout! Learn more

10-Day Weather Forecast

Advertisements
Track Severe Weather on mobile